sensor_id;sensor_type;location;lat;lon;timestamp;P1;durP1;ratioP1;P2;durP2;ratioP2
22837;SDS011;11585;51.450;-0.240;2022-11-15T00:01:27;6.70;;;1.52;;
22837;SDS011;11585;51.450;-0.240;2022-11-15T00:03:58;9.00;;;1.50;;
22837;SDS011;11585;51.450;-0.240;2022-11-15T00:06:23;5.05;;;1.40;;
22837;SDS011;11585;51.450;-0.240;2022-11-15T00:08:49;6.78;;;1.80;;
22837;SDS011;11585;51.450;-0.240;2022-11-15T00:14:39;9.85;;;1.38;;
22837;SDS011;11585;51.450;-0.240;2022-11-15T00:17:04;8.93;;;1.67;;
22837;SDS011;11585;51.450;-0.240;2022-11-15T00:19:32;5.75;;;1.48;;
22837;SDS011;11585;51.450;-0.240;2022-11-15T00:22:06;7.90;;;1.48;;
22837;SDS011;11585;51.450;-0.240;2022-11-15T00:24:41;8.73;;;1.75;;
22837;SDS011;11585;51.450;-0.240;2022-11-15T00:27:07;10.90;;;1.60;;
22837;SDS011;11585;51.450;-0.240;2022-11-15T00:32:18;4.80;;;1.55;;
22837;SDS011;11585;51.450;-0.240;2022-11-15T00:34:43;10.82;;;1.55;;
22837;SDS011;11585;51.450;-0.240;2022-11-15T00:37:09;10.38;;;1.80;;
22837;SDS011;11585;51.450;-0.240;2022-11-15T00:43:00;7.22;;;1.40;;
22837;SDS011;11585;51.450;-0.240;2022-11-15T00:45:31;14.60;;;2.28;;
22837;SDS011;11585;51.450;-0.240;2022-11-15T00:47:56;10.57;;;1.60;;
22837;SDS011;11585;51.450;-0.240;2022-11-15T00:53:44;5.90;;;1.40;;
22837;SDS011;11585;51.450;-0.240;2022-11-15T00:56:31;4.95;;;1.50;;
22837;SDS011;11585;51.450;-0.240;2022-11-15T00:58:56;6.65;;;1.33;;
22837;SDS011;11585;51.450;-0.240;2022-11-15T01:04:31;7.35;;;1.38;;
22837;SDS011;11585;51.450;-0.240;2022-11-15T01:07:00;14.27;;;1.65;;
22837;SDS011;11585;51.450;-0.240;2022-11-15T01:09:29;11.98;;;1.50;;
22837;SDS011;11585;51.450;-0.240;2022-11-15T01:11:54;8.65;;;1.83;;
22837;SDS011;11585;51.450;-0.240;2022-11-15T01:14:20;8.60;;;1.70;;
22837;SDS011;11585;51.450;-0.240;2022-11-15T01:16:46;8.23;;;1.85;;
22837;SDS011;11585;51.450;-0.240;2022-11-15T01:19:11;8.07;;;1.48;;
22837;SDS011;11585;51.450;-0.240;2022-11-15T01:21:37;6.95;;;1.25;;
22837;SDS011;11585;51.450;-0.240;2022-11-15T01:24:03;10.98;;;1.30;;
22837;SDS011;11585;51.450;-0.240;2022-11-15T01:26:29;7.40;;;1.45;;
22837;SDS011;11585;51.450;-0.240;2022-11-15T01:28:54;15.55;;;1.73;;
22837;SDS011;11585;51.450;-0.240;2022-11-15T01:31:20;11.27;;;2.20;;
22837;SDS011;11585;51.450;-0.240;2022-11-15T01:33:49;9.93;;;1.40;;
22837;SDS011;11585;51.450;-0.240;2022-11-15T01:36:19;7.70;;;1.50;;
22837;SDS011;11585;51.450;-0.240;2022-11-15T01:38:52;11.90;;;1.75;;
22837;SDS011;11585;51.450;-0.240;2022-11-15T01:41:33;7.15;;;1.73;;
22837;SDS011;11585;51.450;-0.240;2022-11-15T01:46:55;7.75;;;1.30;;
22837;SDS011;11585;51.450;-0.240;2022-11-15T01:52:48;9.02;;;1.75;;
22837;SDS011;11585;51.450;-0.240;2022-11-15T01:55:14;11.32;;;1.40;;
22837;SDS011;11585;51.450;-0.240;2022-11-15T01:57:46;11.80;;;1.98;;
22837;SDS011;11585;51.450;-0.240;2022-11-15T02:03:06;12.45;;;1.27;;
22837;SDS011;11585;51.450;-0.240;2022-11-15T02:05:32;8.40;;;1.63;;
22837;SDS011;11585;51.450;-0.240;2022-11-15T02:08:01;14.02;;;1.60;;
22837;SDS011;11585;51.450;-0.240;2022-11-15T02:10:29;14.93;;;1.77;;
22837;SDS011;11585;51.450;-0.240;2022-11-15T02:12:58;17.75;;;2.00;;
22837;SDS011;11585;51.450;-0.240;2022-11-15T02:15:30;5.55;;;1.35;;
22837;SDS011;11585;51.450;-0.240;2022-11-15T02:18:08;11.77;;;1.33;;
22837;SDS011;11585;51.450;-0.240;2022-11-15T02:23:37;6.97;;;1.75;;
22837;SDS011;11585;51.450;-0.240;2022-11-15T02:32:09;10.45;;;1.75;;
22837;SDS011;11585;51.450;-0.240;2022-11-15T02:37:44;8.05;;;1.35;;
22837;SDS011;11585;51.450;-0.240;2022-11-15T02:43:23;15.40;;;1.52;;
22837;SDS011;11585;51.450;-0.240;2022-11-15T02:49:20;12.88;;;1.92;;
22837;SDS011;11585;51.450;-0.240;2022-11-15T02:51:46;8.63;;;1.80;;
22837;SDS011;11585;51.450;-0.240;2022-11-15T02:54:15;10.00;;;2.00;;
22837;SDS011;11585;51.450;-0.240;2022-11-15T02:57:04;12.10;;;2.53;;
22837;SDS011;11585;51.450;-0.240;2022-11-15T03:03:21;13.35;;;1.60;;
22837;SDS011;11585;51.450;-0.240;2022-11-15T03:08:37;11.45;;;1.73;;
22837;SDS011;11585;51.450;-0.240;2022-11-15T03:13:57;7.22;;;1.20;;
22837;SDS011;11585;51.450;-0.240;2022-11-15T03:19:00;12.27;;;1.88;;
22837;SDS011;11585;51.450;-0.240;2022-11-15T03:24:57;5.95;;;1.30;;
22837;SDS011;11585;51.450;-0.240;2022-11-15T03:27:30;11.93;;;1.77;;
22837;SDS011;11585;51.450;-0.240;2022-11-15T03:32:51;15.88;;;1.55;;
22837;SDS011;11585;51.450;-0.240;2022-11-15T03:35:23;10.95;;;1.20;;
22837;SDS011;11585;51.450;-0.240;2022-11-15T03:37:54;8.88;;;1.50;;
22837;SDS011;11585;51.450;-0.240;2022-11-15T03:46:10;13.73;;;2.53;;
22837;SDS011;11585;51.450;-0.240;2022-11-15T03:49:11;13.48;;;1.65;;
22837;SDS011;11585;51.450;-0.240;2022-11-15T03:51:44;8.35;;;1.45;;
22837;SDS011;11585;51.450;-0.240;2022-11-15T03:54:11;12.57;;;2.05;;
22837;SDS011;11585;51.450;-0.240;2022-11-15T03:56:37;7.43;;;1.52;;
22837;SDS011;11585;51.450;-0.240;2022-11-15T03:59:03;12.63;;;1.60;;
22837;SDS011;11585;51.450;-0.240;2022-11-15T04:04:51;11.70;;;1.95;;
22837;SDS011;11585;51.450;-0.240;2022-11-15T04:07:16;12.25;;;1.60;;
22837;SDS011;11585;51.450;-0.240;2022-11-15T04:13:04;16.33;;;1.77;;
22837;SDS011;11585;51.450;-0.240;2022-11-15T04:15:32;11.80;;;1.60;;
22837;SDS011;11585;51.450;-0.240;2022-11-15T04:17:58;10.48;;;1.90;;
22837;SDS011;11585;51.450;-0.240;2022-11-15T04:23:46;14.43;;;1.45;;
22837;SDS011;11585;51.450;-0.240;2022-11-15T04:26:30;14.02;;;1.60;;
22837;SDS011;11585;51.450;-0.240;2022-11-15T04:28:55;13.13;;;1.52;;
22837;SDS011;11585;51.450;-0.240;2022-11-15T04:31:45;10.90;;;2.15;;
22837;SDS011;11585;51.450;-0.240;2022-11-15T04:34:11;7.93;;;1.30;;
22837;SDS011;11585;51.450;-0.240;2022-11-15T04:36:44;15.60;;;1.67;;
22837;SDS011;11585;51.450;-0.240;2022-11-15T04:39:32;10.10;;;1.60;;
22837;SDS011;11585;51.450;-0.240;2022-11-15T04:41:57;9.23;;;1.67;;
22837;SDS011;11585;51.450;-0.240;2022-11-15T04:44:23;11.98;;;1.50;;
22837;SDS011;11585;51.450;-0.240;2022-11-15T04:46:49;17.60;;;1.75;;
22837;SDS011;11585;51.450;-0.240;2022-11-15T04:49:17;19.30;;;1.77;;
22837;SDS011;11585;51.450;-0.240;2022-11-15T04:51:46;7.88;;;1.33;;
22837;SDS011;11585;51.450;-0.240;2022-11-15T04:54:12;6.30;;;1.73;;
22837;SDS011;11585;51.450;-0.240;2022-11-15T04:56:37;16.42;;;1.80;;
22837;SDS011;11585;51.450;-0.240;2022-11-15T04:59:03;12.93;;;2.00;;
22837;SDS011;11585;51.450;-0.240;2022-11-15T05:08:14;18.55;;;2.10;;
22837;SDS011;11585;51.450;-0.240;2022-11-15T05:14:04;18.88;;;2.22;;
22837;SDS011;11585;51.450;-0.240;2022-11-15T05:16:30;10.35;;;2.13;;
22837;SDS011;11585;51.450;-0.240;2022-11-15T05:18:55;12.88;;;1.90;;
22837;SDS011;11585;51.450;-0.240;2022-11-15T05:34:42;11.65;;;1.90;;
22837;SDS011;11585;51.450;-0.240;2022-11-15T05:37:14;10.95;;;1.90;;
22837;SDS011;11585;51.450;-0.240;2022-11-15T05:46:27;16.75;;;2.17;;
22837;SDS011;11585;51.450;-0.240;2022-11-15T05:48:53;15.98;;;2.17;;
22837;SDS011;11585;51.450;-0.240;2022-11-15T05:51:25;14.27;;;2.20;;
22837;SDS011;11585;51.450;-0.240;2022-11-15T05:53:54;20.88;;;3.20;;
22837;SDS011;11585;51.450;-0.240;2022-11-15T05:56:23;13.88;;;2.35;;
22837;SDS011;11585;51.450;-0.240;2022-11-15T05:58:49;12.93;;;1.88;;
22837;SDS011;11585;51.450;-0.240;2022-11-15T06:03:49;16.77;;;2.03;;
22837;SDS011;11585;51.450;-0.240;2022-11-15T06:06:15;13.15;;;2.40;;
22837;SDS011;11585;51.450;-0.240;2022-11-15T06:08:40;13.27;;;2.03;;
22837;SDS011;11585;51.450;-0.240;2022-11-15T06:11:11;13.27;;;2.17;;
22837;SDS011;11585;51.450;-0.240;2022-11-15T06:13:36;15.65;;;2.47;;
22837;SDS011;11585;51.450;-0.240;2022-11-15T06:16:02;16.77;;;2.30;;
22837;SDS011;11585;51.450;-0.240;2022-11-15T06:18:28;15.70;;;2.05;;
22837;SDS011;11585;51.450;-0.240;2022-11-15T06:23:42;14.15;;;2.03;;
22837;SDS011;11585;51.450;-0.240;2022-11-15T06:26:07;17.55;;;2.05;;
22837;SDS011;11585;51.450;-0.240;2022-11-15T06:28:33;25.88;;;2.28;;
22837;SDS011;11585;51.450;-0.240;2022-11-15T06:34:03;22.98;;;2.35;;
22837;SDS011;11585;51.450;-0.240;2022-11-15T06:36:29;16.88;;;2.30;;
22837;SDS011;11585;51.450;-0.240;2022-11-15T06:38:54;15.23;;;2.30;;
22837;SDS011;11585;51.450;-0.240;2022-11-15T06:44:14;13.63;;;2.03;;
22837;SDS011;11585;51.450;-0.240;2022-11-15T06:46:41;12.90;;;2.05;;
22837;SDS011;11585;51.450;-0.240;2022-11-15T06:49:07;11.45;;;1.90;;
22837;SDS011;11585;51.450;-0.240;2022-11-15T06:51:41;17.23;;;2.10;;
22837;SDS011;11585;51.450;-0.240;2022-11-15T06:54:07;12.60;;;1.75;;
22837;SDS011;11585;51.450;-0.240;2022-11-15T06:56:35;11.05;;;2.10;;
22837;SDS011;11585;51.450;-0.240;2022-11-15T06:59:00;18.65;;;2.30;;
22837;SDS011;11585;51.450;-0.240;2022-11-15T07:04:11;14.38;;;1.70;;
22837;SDS011;11585;51.450;-0.240;2022-11-15T07:06:36;15.25;;;2.05;;
22837;SDS011;11585;51.450;-0.240;2022-11-15T07:09:02;11.40;;;1.90;;
22837;SDS011;11585;51.450;-0.240;2022-11-15T07:18:12;11.32;;;2.28;;
22837;SDS011;11585;51.450;-0.240;2022-11-15T07:20:38;13.27;;;1.83;;
22837;SDS011;11585;51.450;-0.240;2022-11-15T07:23:07;10.20;;;1.50;;
22837;SDS011;11585;51.450;-0.240;2022-11-15T07:25:36;6.30;;;1.30;;
22837;SDS011;11585;51.450;-0.240;2022-11-15T07:28:02;3.88;;;1.30;;
22837;SDS011;11585;51.450;-0.240;2022-11-15T07:33:56;7.43;;;1.40;;
22837;SDS011;11585;51.450;-0.240;2022-11-15T07:36:22;6.82;;;1.42;;
22837;SDS011;11585;51.450;-0.240;2022-11-15T07:38:47;5.72;;;1.40;;
22837;SDS011;11585;51.450;-0.240;2022-11-15T07:44:01;6.88;;;1.42;;
22837;SDS011;11585;51.450;-0.240;2022-11-15T07:46:27;4.88;;;1.30;;
22837;SDS011;11585;51.450;-0.240;2022-11-15T07:48:53;4.93;;;1.20;;
22837;SDS011;11585;51.450;-0.240;2022-11-15T07:51:18;5.97;;;1.20;;
22837;SDS011;11585;51.450;-0.240;2022-11-15T07:53:44;5.00;;;1.30;;
22837;SDS011;11585;51.450;-0.240;2022-11-15T07:56:12;6.35;;;1.20;;
22837;SDS011;11585;51.450;-0.240;2022-11-15T07:58:38;4.65;;;1.00;;
22837;SDS011;11585;51.450;-0.240;2022-11-15T08:01:06;8.50;;;1.38;;
22837;SDS011;11585;51.450;-0.240;2022-11-15T08:03:33;5.57;;;1.20;;
22837;SDS011;11585;51.450;-0.240;2022-11-15T08:05:59;2.63;;;0.90;;
22837;SDS011;11585;51.450;-0.240;2022-11-15T08:08:25;5.07;;;1.13;;
22837;SDS011;11585;51.450;-0.240;2022-11-15T08:10:50;3.65;;;0.88;;
22837;SDS011;11585;51.450;-0.240;2022-11-15T08:13:16;2.10;;;1.05;;
22837;SDS011;11585;51.450;-0.240;2022-11-15T08:15:42;7.60;;;1.00;;
22837;SDS011;11585;51.450;-0.240;2022-11-15T08:18:12;4.22;;;0.90;;
22837;SDS011;11585;51.450;-0.240;2022-11-15T08:20:40;1.92;;;1.02;;
22837;SDS011;11585;51.450;-0.240;2022-11-15T08:23:06;2.08;;;1.10;;
22837;SDS011;11585;51.450;-0.240;2022-11-15T08:25:33;2.70;;;0.90;;
22837;SDS011;11585;51.450;-0.240;2022-11-15T08:28:00;1.95;;;1.00;;
22837;SDS011;11585;51.450;-0.240;2022-11-15T08:30:30;2.67;;;0.85;;
22837;SDS011;11585;51.450;-0.240;2022-11-15T08:33:03;3.13;;;0.80;;
22837;SDS011;11585;51.450;-0.240;2022-11-15T08:35:29;1.63;;;0.82;;
22837;SDS011;11585;51.450;-0.240;2022-11-15T08:37:55;3.65;;;1.20;;
22837;SDS011;11585;51.450;-0.240;2022-11-15T08:40:21;2.72;;;0.90;;
22837;SDS011;11585;51.450;-0.240;2022-11-15T08:42:47;7.93;;;1.20;;
22837;SDS011;11585;51.450;-0.240;2022-11-15T08:45:13;2.67;;;0.90;;
22837;SDS011;11585;51.450;-0.240;2022-11-15T08:47:39;5.85;;;1.00;;
22837;SDS011;11585;51.450;-0.240;2022-11-15T08:50:05;2.30;;;0.90;;
22837;SDS011;11585;51.450;-0.240;2022-11-15T08:52:31;2.47;;;0.82;;
22837;SDS011;11585;51.450;-0.240;2022-11-15T08:54:57;4.03;;;1.02;;
22837;SDS011;11585;51.450;-0.240;2022-11-15T08:57:23;6.82;;;1.52;;
22837;SDS011;11585;51.450;-0.240;2022-11-15T08:59:48;2.63;;;0.90;;
22837;SDS011;11585;51.450;-0.240;2022-11-15T09:02:14;7.03;;;0.93;;
22837;SDS011;11585;51.450;-0.240;2022-11-15T09:04:41;3.08;;;1.10;;
22837;SDS011;11585;51.450;-0.240;2022-11-15T09:07:07;3.28;;;0.90;;
22837;SDS011;11585;51.450;-0.240;2022-11-15T09:09:36;3.10;;;1.02;;
22837;SDS011;11585;51.450;-0.240;2022-11-15T09:12:03;1.00;;;0.80;;
22837;SDS011;11585;51.450;-0.240;2022-11-15T09:14:30;3.97;;;0.63;;
22837;SDS011;11585;51.450;-0.240;2022-11-15T09:16:55;2.03;;;0.90;;
22837;SDS011;11585;51.450;-0.240;2022-11-15T09:19:21;1.48;;;0.80;;
22837;SDS011;11585;51.450;-0.240;2022-11-15T09:21:47;1.17;;;0.70;;
22837;SDS011;11585;51.450;-0.240;2022-11-15T09:24:13;2.05;;;1.00;;
22837;SDS011;11585;51.450;-0.240;2022-11-15T09:26:39;1.35;;;0.70;;
22837;SDS011;11585;51.450;-0.240;2022-11-15T09:29:05;1.58;;;0.80;;
22837;SDS011;11585;51.450;-0.240;2022-11-15T09:31:31;2.25;;;0.82;;
22837;SDS011;11585;51.450;-0.240;2022-11-15T09:33:56;4.03;;;0.80;;
22837;SDS011;11585;51.450;-0.240;2022-11-15T09:36:22;5.63;;;1.10;;
22837;SDS011;11585;51.450;-0.240;2022-11-15T09:38:48;1.35;;;0.85;;
22837;SDS011;11585;51.450;-0.240;2022-11-15T09:43:47;4.70;;;1.05;;
22837;SDS011;11585;51.450;-0.240;2022-11-15T09:51:24;3.38;;;0.90;;
22837;SDS011;11585;51.450;-0.240;2022-11-15T09:56:28;4.40;;;1.10;;
22837;SDS011;11585;51.450;-0.240;2022-11-15T10:04:23;6.20;;;1.00;;
22837;SDS011;11585;51.450;-0.240;2022-11-15T10:07:01;6.47;;;1.05;;
22837;SDS011;11585;51.450;-0.240;2022-11-15T10:09:39;3.72;;;0.80;;
22837;SDS011;11585;51.450;-0.240;2022-11-15T10:12:12;3.63;;;1.10;;
22837;SDS011;11585;51.450;-0.240;2022-11-15T10:14:39;7.68;;;1.30;;
22837;SDS011;11585;51.450;-0.240;2022-11-15T10:22:49;5.15;;;1.20;;
22837;SDS011;11585;51.450;-0.240;2022-11-15T10:25:20;4.93;;;1.10;;
22837;SDS011;11585;51.450;-0.240;2022-11-15T10:27:55;12.20;;;1.42;;
22837;SDS011;11585;51.450;-0.240;2022-11-15T10:30:28;7.50;;;1.30;;
22837;SDS011;11585;51.450;-0.240;2022-11-15T10:32:57;11.85;;;1.20;;
22837;SDS011;11585;51.450;-0.240;2022-11-15T10:35:24;3.40;;;1.15;;
22837;SDS011;11585;51.450;-0.240;2022-11-15T10:40:29;4.18;;;1.23;;
22837;SDS011;11585;51.450;-0.240;2022-11-15T10:45:51;8.38;;;1.48;;
22837;SDS011;11585;51.450;-0.240;2022-11-15T10:50:44;6.53;;;1.30;;
22837;SDS011;11585;51.450;-0.240;2022-11-15T10:53:16;3.58;;;1.40;;
22837;SDS011;11585;51.450;-0.240;2022-11-15T10:55:53;7.65;;;1.73;;
22837;SDS011;11585;51.450;-0.240;2022-11-15T10:58:30;4.40;;;1.58;;
22837;SDS011;11585;51.450;-0.240;2022-11-15T11:01:08;7.28;;;1.33;;
22837;SDS011;11585;51.450;-0.240;2022-11-15T11:03:36;7.70;;;1.58;;
22837;SDS011;11585;51.450;-0.240;2022-11-15T11:08:32;8.35;;;1.30;;
22837;SDS011;11585;51.450;-0.240;2022-11-15T11:11:00;7.35;;;1.00;;
22837;SDS011;11585;51.450;-0.240;2022-11-15T11:13:31;6.22;;;1.35;;
22837;SDS011;11585;51.450;-0.240;2022-11-15T11:21:22;7.03;;;1.25;;
22837;SDS011;11585;51.450;-0.240;2022-11-15T11:40:28;4.57;;;1.40;;
22837;SDS011;11585;51.450;-0.240;2022-11-15T11:45:47;5.97;;;1.60;;
22837;SDS011;11585;51.450;-0.240;2022-11-15T11:48:41;4.88;;;1.30;;
22837;SDS011;11585;51.450;-0.240;2022-11-15T11:51:26;7.55;;;1.35;;
22837;SDS011;11585;51.450;-0.240;2022-11-15T11:56:31;9.40;;;1.55;;
22837;SDS011;11585;51.450;-0.240;2022-11-15T12:01:47;1.85;;;1.30;;
22837;SDS011;11585;51.450;-0.240;2022-11-15T12:04:14;1.98;;;1.60;;
22837;SDS011;11585;51.450;-0.240;2022-11-15T12:07:00;4.13;;;1.30;;
22837;SDS011;11585;51.450;-0.240;2022-11-15T12:12:27;11.82;;;2.03;;
22837;SDS011;11585;51.450;-0.240;2022-11-15T12:15:15;8.15;;;1.90;;
22837;SDS011;11585;51.450;-0.240;2022-11-15T12:17:48;4.60;;;1.73;;
22837;SDS011;11585;51.450;-0.240;2022-11-15T12:20:17;17.77;;;2.42;;
22837;SDS011;11585;51.450;-0.240;2022-11-15T12:25:31;6.72;;;1.70;;
22837;SDS011;11585;51.450;-0.240;2022-11-15T12:28:13;9.00;;;1.90;;
22837;SDS011;11585;51.450;-0.240;2022-11-15T12:33:48;10.18;;;2.08;;
22837;SDS011;11585;51.450;-0.240;2022-11-15T12:38:51;10.05;;;1.75;;
22837;SDS011;11585;51.450;-0.240;2022-11-15T12:41:40;6.47;;;1.58;;
22837;SDS011;11585;51.450;-0.240;2022-11-15T12:59:48;10.77;;;2.50;;
22837;SDS011;11585;51.450;-0.240;2022-11-15T13:02:42;9.88;;;2.20;;
22837;SDS011;11585;51.450;-0.240;2022-11-15T13:13:00;20.80;;;9.48;;
22837;SDS011;11585;51.450;-0.240;2022-11-15T13:15:38;24.08;;;12.32;;
22837;SDS011;11585;51.450;-0.240;2022-11-15T13:18:29;22.83;;;9.90;;
22837;SDS011;11585;51.450;-0.240;2022-11-15T13:24:21;18.65;;;5.13;;
22837;SDS011;11585;51.450;-0.240;2022-11-15T13:26:47;18.42;;;8.15;;
22837;SDS011;11585;51.450;-0.240;2022-11-15T13:31:58;23.60;;;4.50;;
22837;SDS011;11585;51.450;-0.240;2022-11-15T13:34:28;16.90;;;1.83;;
22837;SDS011;11585;51.450;-0.240;2022-11-15T13:36:58;11.70;;;2.33;;
22837;SDS011;11585;51.450;-0.240;2022-11-15T13:41:57;10.80;;;2.00;;
22837;SDS011;11585;51.450;-0.240;2022-11-15T13:44:28;21.17;;;1.95;;
22837;SDS011;11585;51.450;-0.240;2022-11-15T13:49:31;7.85;;;1.80;;
22837;SDS011;11585;51.450;-0.240;2022-11-15T13:51:59;11.75;;;1.60;;
22837;SDS011;11585;51.450;-0.240;2022-11-15T13:54:29;14.23;;;2.97;;
22837;SDS011;11585;51.450;-0.240;2022-11-15T13:57:02;9.95;;;1.75;;
22837;SDS011;11585;51.450;-0.240;2022-11-15T14:02:31;9.77;;;1.60;;
22837;SDS011;11585;51.450;-0.240;2022-11-15T14:07:46;11.95;;;2.00;;
22837;SDS011;11585;51.450;-0.240;2022-11-15T14:10:27;12.27;;;1.65;;
22837;SDS011;11585;51.450;-0.240;2022-11-15T14:12:55;11.77;;;1.75;;
22837;SDS011;11585;51.450;-0.240;2022-11-15T14:15:27;11.95;;;1.70;;
22837;SDS011;11585;51.450;-0.240;2022-11-15T14:17:57;12.60;;;1.30;;
22837;SDS011;11585;51.450;-0.240;2022-11-15T14:22:51;6.45;;;1.50;;
22837;SDS011;11585;51.450;-0.240;2022-11-15T14:25:19;12.98;;;1.88;;
22837;SDS011;11585;51.450;-0.240;2022-11-15T14:30:47;12.65;;;1.33;;
22837;SDS011;11585;51.450;-0.240;2022-11-15T14:35:46;8.75;;;1.63;;
22837;SDS011;11585;51.450;-0.240;2022-11-15T14:38:14;6.03;;;1.37;;
22837;SDS011;11585;51.450;-0.240;2022-11-15T14:43:29;14.93;;;1.45;;
22837;SDS011;11585;51.450;-0.240;2022-11-15T14:45:54;9.73;;;1.33;;
22837;SDS011;11585;51.450;-0.240;2022-11-15T14:48:20;8.18;;;1.15;;
22837;SDS011;11585;51.450;-0.240;2022-11-15T15:00:53;7.65;;;2.28;;
22837;SDS011;11585;51.450;-0.240;2022-11-15T15:03:19;10.63;;;1.73;;
22837;SDS011;11585;51.450;-0.240;2022-11-15T15:05:45;8.80;;;1.50;;
22837;SDS011;11585;51.450;-0.240;2022-11-15T15:08:10;7.40;;;2.35;;
22837;SDS011;11585;51.450;-0.240;2022-11-15T15:10:39;12.07;;;2.60;;
22837;SDS011;11585;51.450;-0.240;2022-11-15T15:13:19;7.60;;;1.77;;
22837;SDS011;11585;51.450;-0.240;2022-11-15T15:15:46;7.72;;;1.50;;
22837;SDS011;11585;51.450;-0.240;2022-11-15T15:18:13;12.77;;;1.50;;
22837;SDS011;11585;51.450;-0.240;2022-11-15T15:24:00;12.02;;;1.55;;
22837;SDS011;11585;51.450;-0.240;2022-11-15T15:26:27;6.68;;;1.45;;
22837;SDS011;11585;51.450;-0.240;2022-11-15T15:28:52;14.90;;;1.77;;
22837;SDS011;11585;51.450;-0.240;2022-11-15T15:34:40;9.45;;;1.50;;
22837;SDS011;11585;51.450;-0.240;2022-11-15T15:37:07;7.90;;;1.45;;
22837;SDS011;11585;51.450;-0.240;2022-11-15T15:43:13;9.77;;;1.92;;
22837;SDS011;11585;51.450;-0.240;2022-11-15T15:45:39;7.90;;;1.27;;
22837;SDS011;11585;51.450;-0.240;2022-11-15T15:48:09;5.93;;;1.40;;
22837;SDS011;11585;51.450;-0.240;2022-11-15T15:54:01;7.75;;;1.52;;
22837;SDS011;11585;51.450;-0.240;2022-11-15T15:56:27;11.68;;;2.55;;
22837;SDS011;11585;51.450;-0.240;2022-11-15T15:58:53;12.55;;;1.58;;
22837;SDS011;11585;51.450;-0.240;2022-11-15T16:01:20;15.75;;;3.20;;
22837;SDS011;11585;51.450;-0.240;2022-11-15T16:03:46;6.88;;;1.45;;
22837;SDS011;11585;51.450;-0.240;2022-11-15T16:06:45;8.50;;;1.42;;
22837;SDS011;11585;51.450;-0.240;2022-11-15T16:09:08;16.58;;;3.20;;
22837;SDS011;11585;51.450;-0.240;2022-11-15T16:11:39;7.65;;;1.58;;
22837;SDS011;11585;51.450;-0.240;2022-11-15T16:14:06;14.63;;;2.60;;
22837;SDS011;11585;51.450;-0.240;2022-11-15T16:16:32;13.32;;;1.90;;
22837;SDS011;11585;51.450;-0.240;2022-11-15T16:18:59;7.57;;;2.22;;
22837;SDS011;11585;51.450;-0.240;2022-11-15T16:24:47;15.10;;;2.42;;
22837;SDS011;11585;51.450;-0.240;2022-11-15T16:27:22;17.48;;;2.20;;
22837;SDS011;11585;51.450;-0.240;2022-11-15T16:33:10;14.02;;;2.35;;
22837;SDS011;11585;51.450;-0.240;2022-11-15T16:35:36;6.18;;;1.90;;
22837;SDS011;11585;51.450;-0.240;2022-11-15T16:38:02;7.65;;;1.90;;
22837;SDS011;11585;51.450;-0.240;2022-11-15T16:43:49;9.10;;;1.70;;
22837;SDS011;11585;51.450;-0.240;2022-11-15T16:46:19;13.77;;;2.65;;
22837;SDS011;11585;51.450;-0.240;2022-11-15T16:48:47;10.57;;;2.63;;
22837;SDS011;11585;51.450;-0.240;2022-11-15T16:54:35;11.88;;;1.92;;
22837;SDS011;11585;51.450;-0.240;2022-11-15T17:00:23;8.63;;;2.20;;
22837;SDS011;11585;51.450;-0.240;2022-11-15T17:02:49;9.27;;;1.88;;
22837;SDS011;11585;51.450;-0.240;2022-11-15T17:05:17;5.03;;;1.77;;
22837;SDS011;11585;51.450;-0.240;2022-11-15T17:07:45;9.32;;;2.03;;
22837;SDS011;11585;51.450;-0.240;2022-11-15T17:13:40;8.18;;;2.05;;
22837;SDS011;11585;51.450;-0.240;2022-11-15T17:16:07;13.63;;;2.25;;
22837;SDS011;11585;51.450;-0.240;2022-11-15T17:18:35;23.08;;;2.30;;
22837;SDS011;11585;51.450;-0.240;2022-11-15T17:24:23;16.23;;;2.58;;
22837;SDS011;11585;51.450;-0.240;2022-11-15T17:26:49;12.35;;;2.92;;
22837;SDS011;11585;51.450;-0.240;2022-11-15T17:29:15;13.30;;;2.63;;
22837;SDS011;11585;51.450;-0.240;2022-11-15T17:31:41;12.73;;;2.30;;
22837;SDS011;11585;51.450;-0.240;2022-11-15T17:34:06;10.05;;;2.25;;
22837;SDS011;11585;51.450;-0.240;2022-11-15T17:36:34;10.73;;;2.20;;
22837;SDS011;11585;51.450;-0.240;2022-11-15T17:39:00;10.98;;;2.72;;
22837;SDS011;11585;51.450;-0.240;2022-11-15T17:41:27;11.57;;;1.98;;
22837;SDS011;11585;51.450;-0.240;2022-11-15T17:43:54;11.32;;;2.00;;
22837;SDS011;11585;51.450;-0.240;2022-11-15T17:46:21;13.65;;;2.83;;
22837;SDS011;11585;51.450;-0.240;2022-11-15T17:48:48;7.40;;;2.17;;
22837;SDS011;11585;51.450;-0.240;2022-11-15T17:54:17;7.32;;;1.75;;
22837;SDS011;11585;51.450;-0.240;2022-11-15T17:56:43;9.35;;;2.22;;
22837;SDS011;11585;51.450;-0.240;2022-11-15T17:59:08;8.75;;;2.30;;
22837;SDS011;11585;51.450;-0.240;2022-11-15T18:01:36;8.02;;;2.25;;
22837;SDS011;11585;51.450;-0.240;2022-11-15T18:04:03;10.85;;;2.65;;
22837;SDS011;11585;51.450;-0.240;2022-11-15T18:06:31;9.25;;;2.15;;
22837;SDS011;11585;51.450;-0.240;2022-11-15T18:08:58;7.88;;;2.05;;
22837;SDS011;11585;51.450;-0.240;2022-11-15T18:11:26;9.93;;;2.45;;
22837;SDS011;11585;51.450;-0.240;2022-11-15T18:13:58;5.43;;;1.45;;
22837;SDS011;11585;51.450;-0.240;2022-11-15T18:16:27;4.95;;;1.42;;
22837;SDS011;11585;51.450;-0.240;2022-11-15T18:18:55;6.38;;;1.40;;
22837;SDS011;11585;51.450;-0.240;2022-11-15T18:21:22;6.13;;;1.67;;
22837;SDS011;11585;51.450;-0.240;2022-11-15T18:23:53;7.90;;;1.70;;
22837;SDS011;11585;51.450;-0.240;2022-11-15T18:26:21;9.65;;;1.67;;
22837;SDS011;11585;51.450;-0.240;2022-11-15T18:28:50;4.20;;;1.20;;
22837;SDS011;11585;51.450;-0.240;2022-11-15T18:31:18;6.50;;;1.83;;
22837;SDS011;11585;51.450;-0.240;2022-11-15T18:33:44;8.27;;;2.10;;
22837;SDS011;11585;51.450;-0.240;2022-11-15T18:36:11;7.57;;;1.52;;
22837;SDS011;11585;51.450;-0.240;2022-11-15T18:38:38;9.70;;;2.70;;
22837;SDS011;11585;51.450;-0.240;2022-11-15T18:41:14;6.35;;;1.70;;
22837;SDS011;11585;51.450;-0.240;2022-11-15T18:43:43;15.27;;;2.20;;
22837;SDS011;11585;51.450;-0.240;2022-11-15T18:46:10;5.95;;;1.90;;
22837;SDS011;11585;51.450;-0.240;2022-11-15T18:48:37;12.35;;;3.40;;
22837;SDS011;11585;51.450;-0.240;2022-11-15T18:51:05;6.45;;;1.60;;
22837;SDS011;11585;51.450;-0.240;2022-11-15T18:53:32;8.10;;;1.30;;
22837;SDS011;11585;51.450;-0.240;2022-11-15T18:56:03;7.57;;;1.75;;
22837;SDS011;11585;51.450;-0.240;2022-11-15T18:58:34;7.30;;;1.25;;
22837;SDS011;11585;51.450;-0.240;2022-11-15T19:01:06;6.93;;;2.22;;
22837;SDS011;11585;51.450;-0.240;2022-11-15T19:03:34;9.48;;;1.63;;
22837;SDS011;11585;51.450;-0.240;2022-11-15T19:06:04;5.63;;;1.45;;
22837;SDS011;11585;51.450;-0.240;2022-11-15T19:08:33;9.13;;;2.00;;
22837;SDS011;11585;51.450;-0.240;2022-11-15T19:11:06;5.93;;;1.80;;
22837;SDS011;11585;51.450;-0.240;2022-11-15T19:13:35;11.55;;;2.28;;
22837;SDS011;11585;51.450;-0.240;2022-11-15T19:16:01;10.50;;;1.65;;
22837;SDS011;11585;51.450;-0.240;2022-11-15T19:18:28;11.38;;;2.58;;
22837;SDS011;11585;51.450;-0.240;2022-11-15T19:20:55;7.60;;;2.13;;
22837;SDS011;11585;51.450;-0.240;2022-11-15T19:23:23;6.93;;;1.92;;
22837;SDS011;11585;51.450;-0.240;2022-11-15T19:25:55;8.37;;;1.50;;
22837;SDS011;11585;51.450;-0.240;2022-11-15T19:28:23;5.72;;;2.03;;
22837;SDS011;11585;51.450;-0.240;2022-11-15T19:30:50;12.23;;;1.85;;
22837;SDS011;11585;51.450;-0.240;2022-11-15T19:33:16;10.77;;;2.03;;
22837;SDS011;11585;51.450;-0.240;2022-11-15T19:35:42;10.05;;;2.22;;
22837;SDS011;11585;51.450;-0.240;2022-11-15T19:38:07;8.25;;;2.40;;
22837;SDS011;11585;51.450;-0.240;2022-11-15T19:40:33;13.60;;;2.53;;
22837;SDS011;11585;51.450;-0.240;2022-11-15T19:42:59;13.60;;;2.67;;
22837;SDS011;11585;51.450;-0.240;2022-11-15T19:45:24;11.80;;;2.95;;
22837;SDS011;11585;51.450;-0.240;2022-11-15T19:47:50;10.65;;;2.22;;